createdAt,value
2018-12-14T00:00:11.237Z,2.37
2018-12-14T00:02:39.934Z,4.50
2018-12-14T00:05:08.230Z,2.57
2018-12-14T00:07:36.471Z,3.03
2018-12-14T00:10:07.224Z,3.30
2018-12-14T00:12:35.490Z,4.63
2018-12-14T00:15:05.186Z,2.43
2018-12-14T00:17:33.337Z,3.37
2018-12-14T00:20:02.163Z,2.77
2018-12-14T00:22:30.438Z,4.90
2018-12-14T00:24:58.586Z,1.80
2018-12-14T00:27:27.084Z,5.63
2018-12-14T00:29:56.476Z,4.37
2018-12-14T00:32:24.904Z,5.60
2018-12-14T00:34:53.249Z,5.50
2018-12-14T00:37:21.399Z,5.80
2018-12-14T00:39:49.544Z,2.83
2018-12-14T00:42:17.739Z,5.60
2018-12-14T00:44:45.933Z,4.27
2018-12-14T00:47:14.113Z,2.63
2018-12-14T00:49:42.280Z,4.60
2018-12-14T00:52:10.774Z,4.57
2018-12-14T00:54:39.162Z,4.53
2018-12-14T00:57:07.350Z,2.87
2018-12-14T00:59:35.618Z,2.30
2018-12-14T01:02:11.243Z,4.60
2018-12-14T01:04:39.785Z,4.30
2018-12-14T01:07:07.953Z,3.17
2018-12-14T01:09:36.151Z,3.27
2018-12-14T01:12:05.923Z,3.40
2018-12-14T01:14:34.074Z,3.43
2018-12-14T01:17:04.382Z,1.83
2018-12-14T01:19:32.603Z,3.57
2018-12-14T01:22:01.972Z,5.50
2018-12-14T01:24:30.121Z,3.17
2018-12-14T01:26:58.395Z,3.27
2018-12-14T01:29:26.594Z,6.07
2018-12-14T01:31:54.755Z,5.27
2018-12-14T01:34:22.999Z,6.23
2018-12-14T01:36:51.138Z,4.77
2018-12-14T01:39:19.311Z,5.60
2018-12-14T01:41:47.726Z,6.00
2018-12-14T01:44:15.903Z,5.57
2018-12-14T01:46:44.759Z,5.70
2018-12-14T01:49:13.099Z,4.93
2018-12-14T01:51:42.859Z,8.57
2018-12-14T01:54:11.041Z,4.27
2018-12-14T01:56:39.352Z,3.30
2018-12-14T01:59:07.602Z,3.57
2018-12-14T02:01:35.798Z,3.77
2018-12-14T02:04:05.726Z,3.20
2018-12-14T02:06:34.884Z,3.07
2018-12-14T02:09:07.347Z,3.90
2018-12-14T02:11:35.522Z,5.10
2018-12-14T02:14:05.070Z,3.33
2018-12-14T02:16:33.311Z,1.70
2018-12-14T02:19:02.968Z,2.37
2018-12-14T02:21:31.239Z,3.80
2018-12-14T02:23:59.547Z,4.30
2018-12-14T02:26:27.674Z,3.67
2018-12-14T02:28:56.770Z,3.70
2018-12-14T02:31:24.970Z,4.60
2018-12-14T02:33:53.146Z,4.40
2018-12-14T02:36:21.322Z,3.80
2018-12-14T02:38:49.645Z,3.80
2018-12-14T02:41:17.774Z,5.40
2018-12-14T02:43:45.955Z,4.93
2018-12-14T02:46:14.154Z,3.10
2018-12-14T02:48:42.422Z,3.80
2018-12-14T02:51:10.753Z,3.77
2018-12-14T02:53:39.002Z,4.43
2018-12-14T02:56:07.162Z,4.80
2018-12-14T02:58:35.317Z,5.17
2018-12-14T03:01:06.856Z,3.50
2018-12-14T03:03:35.152Z,3.70
2018-12-14T03:06:05.129Z,5.10
2018-12-14T03:08:33.267Z,4.90
2018-12-14T03:11:04.774Z,4.27
2018-12-14T03:13:32.995Z,5.00
2018-12-14T03:16:03.680Z,1.50
2018-12-14T03:18:31.810Z,5.13
2018-12-14T03:21:00.096Z,5.23
2018-12-14T03:23:28.299Z,3.27
2018-12-14T03:25:56.758Z,4.47
2018-12-14T03:28:24.906Z,5.50
2018-12-14T03:30:53.090Z,2.93
2018-12-14T03:33:21.318Z,2.60
2018-12-14T03:35:49.572Z,2.93
2018-12-14T03:38:17.743Z,1.97
2018-12-14T03:40:45.976Z,4.90
2018-12-14T03:43:14.292Z,2.77
2018-12-14T03:45:42.578Z,2.10
2018-12-14T03:48:10.834Z,5.30
2018-12-14T03:50:39.111Z,3.60
2018-12-14T03:53:07.385Z,4.63
2018-12-14T03:55:35.678Z,4.60
2018-12-14T03:58:06.918Z,3.60
2018-12-14T04:00:35.464Z,4.40
2018-12-14T04:03:05.098Z,5.90
2018-12-14T04:05:33.538Z,3.90
2018-12-14T04:08:04.739Z,4.83
2018-12-14T04:10:33.007Z,2.00
2018-12-14T04:13:04.665Z,3.73
2018-12-14T04:15:33.102Z,4.37
2018-12-14T04:18:03.769Z,1.73
2018-12-14T04:20:32.026Z,3.00
2018-12-14T04:23:00.228Z,3.53
2018-12-14T04:25:28.350Z,2.57
2018-12-14T04:27:56.523Z,2.30
2018-12-14T04:30:24.759Z,3.00
2018-12-14T04:32:52.972Z,3.40
2018-12-14T04:35:21.502Z,1.60
2018-12-14T04:37:49.769Z,2.23
2018-12-14T04:40:18.807Z,3.90
2018-12-14T04:42:49.005Z,2.53
2018-12-14T04:45:17.358Z,2.87
2018-12-14T04:47:45.472Z,2.93
2018-12-14T04:50:13.726Z,3.13
2018-12-14T04:52:41.915Z,1.63
2018-12-14T04:55:10.220Z,2.80
2018-12-14T04:57:38.474Z,1.73
2018-12-14T05:00:07.430Z,2.10
2018-12-14T05:02:35.603Z,3.37
2018-12-14T05:05:05.017Z,3.27
2018-12-14T05:07:33.245Z,3.53
2018-12-14T05:10:02.771Z,2.60
2018-12-14T05:12:30.961Z,1.73
2018-12-14T05:14:59.201Z,1.53
2018-12-14T05:17:28.332Z,2.37
2018-12-14T05:19:56.923Z,1.70
2018-12-14T05:22:25.091Z,1.50
2018-12-14T05:24:53.226Z,2.70
2018-12-14T05:27:21.474Z,2.60
2018-12-14T05:29:49.862Z,5.03
2018-12-14T05:32:18.067Z,3.70
2018-12-14T05:34:46.295Z,2.03
2018-12-14T05:37:14.542Z,2.23
2018-12-14T05:39:42.672Z,3.00
2018-12-14T05:42:10.888Z,3.07
2018-12-14T05:44:39.050Z,4.67
2018-12-14T05:47:07.324Z,3.93
2018-12-14T05:49:35.497Z,5.67
2018-12-14T05:52:06.743Z,4.40
2018-12-14T05:54:34.891Z,4.40
2018-12-14T05:57:06.765Z,3.17
2018-12-14T05:59:34.921Z,3.80
2018-12-14T06:02:06.678Z,4.63
2018-12-14T06:04:35.722Z,4.60
2018-12-14T06:07:04.743Z,4.53
2018-12-14T06:09:33.046Z,2.80
2018-12-14T06:12:02.199Z,3.90
2018-12-14T06:14:30.418Z,6.83
2018-12-14T06:16:58.654Z,3.27
2018-12-14T06:19:26.869Z,3.20
2018-12-14T06:21:54.998Z,6.07
2018-12-14T06:24:23.169Z,3.60
2018-12-14T06:26:51.329Z,6.67
2018-12-14T06:29:19.534Z,6.47
2018-12-14T06:31:47.699Z,5.63
2018-12-14T06:34:15.935Z,5.17
2018-12-14T06:36:44.950Z,5.67
2018-12-14T06:39:13.306Z,5.10
2018-12-14T06:41:41.915Z,5.93
2018-12-14T06:44:10.187Z,4.80
2018-12-14T06:46:38.340Z,5.80
2018-12-14T06:49:06.499Z,3.97
2018-12-14T06:51:34.818Z,5.93
2018-12-14T06:54:05.078Z,3.73
2018-12-14T06:56:33.263Z,5.07
2018-12-14T06:59:03.022Z,5.90
2018-12-14T07:01:31.450Z,6.30
2018-12-14T07:03:59.591Z,3.50
2018-12-14T07:06:27.726Z,3.90
2018-12-14T07:08:55.888Z,3.30
2018-12-14T07:11:24.018Z,2.70
2018-12-14T07:13:52.842Z,3.87
2018-12-14T07:16:21.166Z,3.63
2018-12-14T07:18:49.351Z,3.97
2018-12-14T07:21:17.647Z,1.37
2018-12-14T07:23:45.903Z,4.27
2018-12-14T07:26:14.171Z,3.20
2018-12-14T07:28:42.375Z,4.10
2018-12-14T07:31:10.697Z,4.77
2018-12-14T07:34:42.352Z,3.67
2018-12-14T07:37:10.526Z,2.93
2018-12-14T07:39:38.658Z,3.83
2018-12-14T07:42:06.855Z,3.97
2018-12-14T07:44:35.150Z,5.40
2018-12-14T07:47:11.694Z,4.70
2018-12-14T07:49:38.021Z,5.30
2018-12-14T07:52:06.290Z,5.00
2018-12-14T07:54:34.498Z,5.93
2018-12-14T07:57:03.434Z,5.27
2018-12-14T07:59:32.530Z,4.50
2018-12-14T08:02:02.025Z,6.23
2018-12-14T08:04:30.423Z,5.20
2018-12-14T08:06:59.026Z,4.80
2018-12-14T08:09:27.274Z,6.20
2018-12-14T08:11:56.352Z,5.40
2018-12-14T08:14:24.525Z,4.50
2018-12-14T08:16:52.687Z,3.63
2018-12-14T08:19:20.984Z,6.00
2018-12-14T08:21:49.163Z,6.50
2018-12-14T08:24:17.335Z,6.70
2018-12-14T08:26:45.515Z,7.10
2018-12-14T08:29:13.679Z,3.27
2018-12-14T08:31:41.883Z,4.57
2018-12-14T08:34:10.039Z,5.80
2018-12-14T08:36:38.632Z,6.80
2018-12-14T08:39:07.602Z,4.70
2018-12-14T08:41:35.856Z,5.67
2018-12-14T08:44:04.175Z,5.37
2018-12-14T08:46:32.324Z,7.40
2018-12-14T08:49:00.492Z,3.20
2018-12-14T08:51:28.682Z,4.63
2018-12-14T08:53:56.856Z,4.50
2018-12-14T08:56:25.050Z,6.13
2018-12-14T08:58:53.295Z,4.77
2018-12-14T09:01:21.478Z,7.13
2018-12-14T09:03:49.653Z,5.97
2018-12-14T09:06:18.114Z,6.57
2018-12-14T09:08:46.405Z,6.47
2018-12-14T09:11:14.659Z,6.40
2018-12-14T09:13:47.875Z,6.40
2018-12-14T09:16:13.175Z,3.63
2018-12-14T09:18:41.320Z,4.90
2018-12-14T09:21:09.819Z,5.80
2018-12-14T09:23:37.986Z,4.27
2018-12-14T09:26:06.178Z,5.83
2018-12-14T09:28:34.418Z,6.20
2018-12-14T09:31:16.043Z,5.13
2018-12-14T09:33:44.282Z,4.40
2018-12-14T09:36:12.887Z,4.23
2018-12-14T09:38:41.214Z,5.77
2018-12-14T09:41:09.394Z,5.00
2018-12-14T09:43:37.682Z,5.73
2018-12-14T09:46:05.815Z,4.50
2018-12-14T09:48:34.002Z,2.80
2018-12-14T09:51:02.162Z,2.80
2018-12-14T09:53:30.479Z,4.60
2018-12-14T09:55:58.748Z,5.77
2018-12-14T09:58:26.982Z,4.97
2018-12-14T10:00:55.182Z,6.77
2018-12-14T10:03:23.460Z,6.77
2018-12-14T10:05:51.683Z,6.43
2018-12-14T10:08:19.967Z,5.20
2018-12-14T10:10:48.549Z,6.30
2018-12-14T10:13:16.978Z,7.43
2018-12-14T10:15:45.127Z,5.80
2018-12-14T10:18:13.531Z,6.20
2018-12-14T10:20:41.723Z,5.30
2018-12-14T10:23:09.983Z,7.80
2018-12-14T10:25:38.263Z,6.70
2018-12-14T10:28:06.463Z,6.40
2018-12-14T10:30:34.617Z,3.83
2018-12-14T10:33:04.047Z,1.83
2018-12-14T10:35:32.332Z,3.17
2018-12-14T10:38:00.549Z,5.17
2018-12-14T10:40:28.794Z,5.00
2018-12-14T10:42:57.091Z,4.87
2018-12-14T10:45:27.087Z,3.37
2018-12-14T10:47:55.365Z,2.73
2018-12-14T10:50:23.606Z,6.53
2018-12-14T10:52:51.751Z,6.00
2018-12-14T10:55:20.006Z,2.77
2018-12-14T10:57:48.554Z,5.60
2018-12-14T11:00:22.734Z,4.90
2018-12-14T11:02:50.969Z,4.23
2018-12-14T11:05:19.148Z,5.33
2018-12-14T11:07:47.289Z,7.07
2018-12-14T11:10:15.636Z,6.57
2018-12-14T11:12:43.890Z,7.70
2018-12-14T11:15:12.219Z,5.93
2018-12-14T11:17:40.490Z,6.57
2018-12-14T11:20:10.018Z,6.70
2018-12-14T11:22:38.254Z,6.67
2018-12-14T11:25:07.782Z,4.80
2018-12-14T11:27:36.310Z,4.73
2018-12-14T11:30:07.498Z,6.10
2018-12-14T11:32:35.872Z,8.43
2018-12-14T11:35:05.089Z,7.30
2018-12-14T11:37:33.322Z,7.77
2018-12-14T11:40:03.907Z,7.77
2018-12-14T11:42:32.179Z,6.60
2018-12-14T11:45:00.459Z,7.13
2018-12-14T11:47:28.787Z,5.73
2018-12-14T11:49:57.047Z,8.07
2018-12-14T11:52:25.196Z,4.33
2018-12-14T11:54:53.514Z,3.90
2018-12-14T11:57:21.744Z,5.47
2018-12-14T11:59:49.930Z,6.30
2018-12-14T12:02:18.766Z,6.83
2018-12-14T12:04:46.963Z,6.00
2018-12-14T12:07:15.218Z,6.60
2018-12-14T12:09:43.457Z,5.93
2018-12-14T12:12:11.767Z,5.37
2018-12-14T12:14:39.968Z,3.60
2018-12-14T12:17:08.230Z,5.60
2018-12-14T12:19:36.390Z,4.70
2018-12-14T12:22:04.874Z,5.30
2018-12-14T12:24:33.047Z,6.63
2018-12-14T12:27:04.834Z,4.30
2018-12-14T12:29:33.082Z,5.00
2018-12-14T12:32:02.820Z,6.70
2018-12-14T12:34:31.055Z,5.93
2018-12-14T12:36:59.230Z,5.97
2018-12-14T12:39:27.548Z,5.80
2018-12-14T12:41:55.727Z,3.20
2018-12-14T12:44:24.879Z,3.60
2018-12-14T12:46:53.394Z,3.33
2018-12-14T12:49:22.448Z,2.33
2018-12-14T12:51:50.859Z,3.90
2018-12-14T12:54:19.970Z,6.53
2018-12-14T12:56:48.116Z,5.20
2018-12-14T12:59:16.362Z,4.33
2018-12-14T13:01:44.551Z,4.13
2018-12-14T13:04:12.759Z,2.60
2018-12-14T13:06:40.924Z,5.70
2018-12-14T13:09:09.546Z,5.47
2018-12-14T13:11:37.703Z,6.87
2018-12-14T13:14:06.608Z,5.00
2018-12-14T13:16:34.802Z,5.13
2018-12-14T13:19:03.991Z,4.90
2018-12-14T13:21:32.186Z,5.60
2018-12-14T13:24:00.339Z,6.17
2018-12-14T13:26:28.594Z,5.27
2018-12-14T13:28:57.716Z,6.40
2018-12-14T13:31:32.554Z,6.70
2018-12-14T13:34:00.735Z,3.43
2018-12-14T13:36:28.936Z,4.30
2018-12-14T13:38:57.099Z,4.30
2018-12-14T13:41:25.502Z,4.83
2018-12-14T13:43:53.755Z,5.57
2018-12-14T13:46:21.986Z,7.07
2018-12-14T13:48:50.535Z,5.47
2018-12-14T13:51:19.438Z,8.57
2018-12-14T13:53:47.783Z,7.00
2018-12-14T13:56:15.925Z,6.47
2018-12-14T13:58:44.206Z,6.80
2018-12-14T14:01:12.395Z,5.53
2018-12-14T14:03:40.602Z,7.87
2018-12-14T14:06:08.774Z,9.00
2018-12-14T14:08:37.020Z,6.03
2018-12-14T14:11:05.247Z,5.63
2018-12-14T14:13:33.425Z,5.97
2018-12-14T14:16:03.718Z,7.03
2018-12-14T14:18:31.898Z,5.43
2018-12-14T14:21:00.070Z,3.93
2018-12-14T14:23:28.246Z,8.33
2018-12-14T14:25:56.435Z,6.50
2018-12-14T14:28:24.632Z,7.90
2018-12-14T14:30:52.775Z,6.17
2018-12-14T14:33:20.973Z,8.73
2018-12-14T14:35:49.215Z,7.43
2018-12-14T14:38:17.399Z,7.97
2018-12-14T14:40:45.861Z,7.27
2018-12-14T14:43:14.091Z,8.23
2018-12-14T14:45:42.290Z,8.00
2018-12-14T14:48:10.486Z,6.40
2018-12-14T14:50:39.700Z,7.40
2018-12-14T14:53:07.946Z,9.03
2018-12-14T14:55:36.147Z,8.77
2018-12-14T14:58:06.851Z,8.20
2018-12-14T15:00:35.071Z,6.53
2018-12-14T15:03:04.378Z,8.93
2018-12-14T15:05:32.544Z,4.37
2018-12-14T15:08:00.695Z,5.10
2018-12-14T15:10:29.758Z,6.40
2018-12-14T15:12:57.944Z,3.33
2018-12-14T15:15:26.144Z,4.47
2018-12-14T15:17:54.460Z,2.93
2018-12-14T15:20:22.737Z,6.77
2018-12-14T15:22:51.063Z,3.60
2018-12-14T15:25:19.237Z,5.10
2018-12-14T15:27:47.395Z,6.90
2018-12-14T15:30:16.493Z,5.83
2018-12-14T15:32:44.755Z,6.37
2018-12-14T15:35:12.958Z,7.80
2018-12-14T15:37:41.180Z,6.13
2018-12-14T15:40:11.182Z,5.57
2018-12-14T15:42:39.407Z,4.60
2018-12-14T15:45:13.115Z,5.77
2018-12-14T15:47:39.263Z,4.60
2018-12-14T15:50:07.900Z,4.90
2018-12-14T15:52:36.754Z,5.80
2018-12-14T15:55:05.742Z,5.93
2018-12-14T15:57:34.028Z,3.97
2018-12-14T16:00:05.264Z,2.13
2018-12-14T16:02:33.665Z,4.13
2018-12-14T16:05:02.907Z,5.03
2018-12-14T16:07:31.085Z,2.77
2018-12-14T16:09:59.473Z,4.50
2018-12-14T16:12:27.726Z,4.80
2018-12-14T16:14:55.928Z,4.50
2018-12-14T16:17:24.203Z,4.80
2018-12-14T16:19:52.419Z,3.23
2018-12-14T16:22:21.012Z,5.17
2018-12-14T16:24:49.341Z,6.90
2018-12-14T16:27:17.614Z,5.83
2018-12-14T16:29:45.926Z,3.40
2018-12-14T16:32:14.247Z,3.83
2018-12-14T16:34:42.539Z,2.60
2018-12-14T16:37:10.742Z,2.77
2018-12-14T16:39:38.981Z,2.90
2018-12-14T16:42:08.671Z,3.87
2018-12-14T16:44:36.895Z,5.03
2018-12-14T16:47:06.543Z,6.40
2018-12-14T16:49:34.817Z,5.00
2018-12-14T16:52:04.011Z,3.97
2018-12-14T16:54:32.466Z,2.40
2018-12-14T16:57:00.679Z,7.40
2018-12-14T16:59:29.539Z,5.93
2018-12-14T17:01:57.727Z,5.00
2018-12-14T17:04:26.761Z,5.90
2018-12-14T17:06:54.902Z,4.37
2018-12-14T17:09:23.054Z,5.40
2018-12-14T17:11:51.227Z,5.07
2018-12-14T17:14:19.579Z,6.10
2018-12-14T17:16:48.626Z,7.00
2018-12-14T17:19:16.780Z,5.60
2018-12-14T17:21:45.023Z,5.87
2018-12-14T17:24:13.166Z,7.20
2018-12-14T17:26:41.379Z,6.03
2018-12-14T17:29:10.667Z,4.80
2018-12-14T17:31:38.946Z,6.20
2018-12-14T17:34:07.146Z,7.60
2018-12-14T17:36:35.322Z,6.43
2018-12-14T17:39:06.262Z,6.37
2018-12-14T17:41:34.527Z,7.13
2018-12-14T17:44:03.702Z,8.03
2018-12-14T17:46:32.938Z,6.50
2018-12-14T17:49:03.019Z,6.00
2018-12-14T17:51:31.758Z,6.10
2018-12-14T17:54:00.071Z,5.73
2018-12-14T17:56:28.492Z,2.73
2018-12-14T17:58:56.697Z,5.40
2018-12-14T18:01:24.890Z,7.10
2018-12-14T18:03:53.060Z,7.87
2018-12-14T18:06:21.314Z,8.30
2018-12-14T18:08:50.779Z,9.23
2018-12-14T18:11:20.199Z,5.50
2018-12-14T18:13:48.562Z,5.23
2018-12-14T18:16:17.109Z,7.40
2018-12-14T18:18:45.621Z,5.83
2018-12-14T18:21:13.769Z,7.10
2018-12-14T18:23:41.947Z,5.73
2018-12-14T18:26:10.232Z,7.70
2018-12-14T18:28:38.447Z,8.00
2018-12-14T18:31:06.879Z,8.13
2018-12-14T18:33:35.178Z,7.00
2018-12-14T18:36:07.896Z,6.97
2018-12-14T18:38:36.903Z,6.47
2018-12-14T18:41:05.134Z,7.30
2018-12-14T18:43:33.370Z,7.20
2018-12-14T18:46:02.819Z,7.93
2018-12-14T18:48:31.739Z,7.20
2018-12-14T18:50:59.922Z,7.47
2018-12-14T18:53:28.170Z,7.10
2018-12-14T18:55:56.438Z,7.13
2018-12-14T18:58:24.590Z,8.33
2018-12-14T19:00:52.795Z,7.03
2018-12-14T19:03:20.975Z,8.00
2018-12-14T19:05:49.210Z,7.60
2018-12-14T19:08:17.375Z,6.57
2018-12-14T19:10:46.676Z,7.50
2018-12-14T19:13:14.876Z,8.33
2018-12-14T19:15:43.042Z,7.47
2018-12-14T19:18:11.302Z,6.70
2018-12-14T19:20:39.432Z,9.63
2018-12-14T19:23:07.638Z,8.27
2018-12-14T19:25:35.798Z,8.13
2018-12-14T19:28:06.646Z,7.97
2018-12-14T19:30:34.850Z,7.87
2018-12-14T19:33:06.994Z,14.17
2018-12-14T19:35:35.248Z,9.30
2018-12-14T19:38:06.819Z,9.17
2018-12-14T19:40:35.050Z,6.57
2018-12-14T19:43:06.623Z,13.90
2018-12-14T19:45:34.883Z,8.47
2018-12-14T19:48:06.950Z,7.30
2018-12-14T19:50:42.434Z,7.43
2018-12-14T19:53:10.644Z,5.87
2018-12-14T19:55:38.958Z,5.17
2018-12-14T19:58:07.184Z,4.07
2018-12-14T20:00:36.750Z,4.97
2018-12-14T20:03:05.027Z,5.90
2018-12-14T20:05:33.144Z,4.73
2018-12-14T20:08:04.883Z,8.67
2018-12-14T20:10:33.075Z,6.80
2018-12-14T20:13:05.835Z,6.80
2018-12-14T20:15:34.096Z,8.00
2018-12-14T20:18:03.490Z,7.73
2018-12-14T20:20:32.061Z,8.57
2018-12-14T20:23:00.338Z,8.70
2018-12-14T20:25:28.621Z,8.20
2018-12-14T20:27:56.851Z,8.17
2018-12-14T20:30:25.047Z,9.10
2018-12-14T20:32:53.191Z,7.83
2018-12-14T20:35:22.443Z,8.50
2018-12-14T20:37:50.787Z,8.00
2018-12-14T20:40:18.987Z,6.53
2018-12-14T20:42:47.754Z,7.23
2018-12-14T20:45:15.936Z,8.40
2018-12-14T20:47:44.823Z,8.10
2018-12-14T20:50:13.147Z,6.13
2018-12-14T20:52:41.431Z,7.87
2018-12-14T20:55:10.485Z,8.00
2018-12-14T20:57:38.764Z,8.40
2018-12-14T21:00:09.584Z,7.97
2018-12-14T21:02:38.722Z,7.53
2018-12-14T21:05:07.031Z,7.70
2018-12-14T21:07:35.210Z,7.40
2018-12-14T21:10:08.252Z,7.07
2018-12-14T21:12:36.619Z,5.70
2018-12-14T21:15:08.316Z,7.07
2018-12-14T21:17:36.535Z,7.50
2018-12-14T21:20:07.230Z,8.67
2018-12-14T21:22:35.542Z,7.87
2018-12-14T21:25:05.955Z,5.17
2018-12-14T21:27:34.173Z,6.60
2018-12-14T21:30:07.686Z,5.87
2018-12-14T21:32:35.934Z,6.20
2018-12-14T21:35:04.535Z,6.27
2018-12-14T21:37:32.760Z,5.27
2018-12-14T21:40:02.943Z,5.27
2018-12-14T21:42:31.062Z,7.00
2018-12-14T21:44:59.256Z,7.33
2018-12-14T21:47:27.440Z,7.23
2018-12-14T21:49:55.932Z,8.40
2018-12-14T21:52:24.183Z,6.73
2018-12-14T21:54:52.342Z,6.87
2018-12-14T21:57:20.502Z,8.50
2018-12-14T21:59:48.655Z,8.77
2018-12-14T22:02:16.871Z,5.00
2018-12-14T22:04:46.046Z,8.00
2018-12-14T22:07:15.235Z,6.90
2018-12-14T22:09:43.672Z,5.03
2018-12-14T22:12:12.066Z,6.40
2018-12-14T22:14:40.339Z,5.87
2018-12-14T22:17:08.531Z,6.00
2018-12-14T22:19:36.702Z,5.80
2018-12-14T22:22:04.904Z,5.87
2018-12-14T22:24:34.084Z,8.10
2018-12-14T22:27:08.167Z,7.07
2018-12-14T22:29:36.367Z,8.77
2018-12-14T22:32:06.989Z,8.90
2018-12-14T22:34:36.153Z,9.10
2018-12-14T22:37:04.926Z,9.10
2018-12-14T22:39:33.614Z,8.60
2018-12-14T22:42:02.750Z,7.67
2018-12-14T22:44:30.919Z,8.13
2018-12-14T22:46:59.158Z,8.47
2018-12-14T22:49:27.315Z,9.93
2018-12-14T22:51:55.539Z,6.50
2018-12-14T22:54:23.706Z,6.10
2018-12-14T22:56:51.922Z,8.27
2018-12-14T22:59:20.122Z,8.33
2018-12-14T23:01:48.423Z,7.37
2018-12-14T23:04:16.635Z,8.87
2018-12-14T23:06:45.816Z,9.17
2018-12-14T23:09:14.142Z,8.70
2018-12-14T23:11:42.311Z,8.53
2018-12-14T23:14:10.548Z,8.90
2018-12-14T23:16:38.732Z,6.97
2018-12-14T23:19:06.939Z,5.53
2018-12-14T23:21:35.179Z,7.30
2018-12-14T23:24:06.762Z,7.60
2018-12-14T23:26:34.912Z,7.40
2018-12-14T23:29:06.705Z,8.27
2018-12-14T23:31:34.933Z,6.03
2018-12-14T23:34:07.854Z,8.23
2018-12-14T23:36:36.103Z,7.73
2018-12-14T23:39:06.642Z,6.57
2018-12-14T23:41:34.934Z,7.90
2018-12-14T23:44:07.722Z,6.97
2018-12-14T23:46:35.988Z,7.70
2018-12-14T23:49:05.894Z,7.90
2018-12-14T23:51:34.066Z,8.40
2018-12-14T23:54:03.460Z,8.93
2018-12-14T23:56:32.732Z,8.03
2018-12-14T23:59:02.820Z,8.30
